Time;durP1;ratioP1;P1;durP2;ratioP2;P2;SDS_P1;SDS_P2;PMS_P1;PMS_P2;Temp;Humidity;BMP_temperature;BMP_pressure;BME280_temperature;BME280_humidity;BME280_pressure;Samples;Min_cycle;Max_cycle;Signal;HPM_P1;HPM_P2
2023/06/07 04:22:45;;;;;;;8.70;7.43;;;;;;;16.20;100.00;100284.53;6639537;26;277046;-88
2023/06/07 04:25:48;;;;;;;8.38;6.82;;;;;;;16.20;100.00;100284.53;6618181;26;33914;-89
2023/06/07 04:28:56;;;;;;;9.88;6.87;;;;;;;15.83;100.00;100290.75;6618771;26;34876;-89
2023/06/07 04:32:01;;;;;;;8.60;6.10;;;;;;;15.97;100.00;100288.91;6609809;26;33737;-89
2023/06/07 04:35:05;;;;;;;7.00;6.30;;;;;;;16.07;100.00;100292.62;6613922;26;34557;-89
2023/06/07 04:38:20;;;;;;;7.00;6.37;;;;;;;16.20;100.00;100295.25;6611991;26;34292;-90
2023/06/07 04:52:43;;;;;;;10.07;6.93;;;;;;;16.35;100.00;100297.72;6617942;26;20071;-90
2023/06/07 04:59:42;;;;;;;11.48;6.72;;;;;;;16.54;100.00;100300.72;6610513;26;20049;-89
2023/06/07 05:02:48;;;;;;;10.60;6.10;;;;;;;16.53;100.00;100306.19;6610639;26;33858;-90
2023/06/07 05:40:40;;;;;;;9.75;5.62;;;;;;;17.06;100.00;100304.87;6610342;26;20071;-89
2023/06/07 05:43:43;;;;;;;8.55;5.95;;;;;;;17.32;100.00;100304.63;6610348;27;33787;-88
2023/06/07 05:46:46;;;;;;;8.77;6.12;;;;;;;17.55;100.00;100310.81;6604753;26;33968;-89
2023/06/07 05:49:49;;;;;;;15.13;5.90;;;;;;;17.65;100.00;100310.94;6602355;26;34057;-88
2023/06/07 05:52:56;;;;;;;6.80;5.53;;;;;;;17.72;100.00;100320.22;6610263;27;34408;-88
2023/06/07 05:55:59;;;;;;;8.00;5.55;;;;;;;17.67;100.00;100322.41;6610545;27;34508;-88
2023/06/07 05:59:02;;;;;;;5.62;5.12;;;;;;;17.89;100.00;100321.50;6613761;26;33381;-88
2023/06/07 06:02:06;;;;;;;6.10;5.50;;;;;;;17.77;100.00;100326.03;6613813;27;33656;-88
2023/06/07 06:05:09;;;;;;;7.90;5.87;;;;;;;17.79;100.00;100323.22;6611065;27;33451;-84
2023/06/07 06:08:13;;;;;;;9.55;6.15;;;;;;;17.78;100.00;100327.75;6608161;27;33733;-83
2023/06/07 06:11:16;;;;;;;7.70;5.32;;;;;;;17.72;100.00;100328.25;6612695;27;34101;-83
2023/06/07 06:14:22;;;;;;;9.30;5.65;;;;;;;18.10;100.00;100326.13;6611688;27;34104;-82
2023/06/07 06:17:25;;;;;;;6.95;5.32;;;;;;;18.04;100.00;100324.78;6609687;27;34008;-83
2023/06/07 06:20:28;;;;;;;8.25;6.05;;;;;;;18.06;100.00;100319.31;6608920;27;33982;-84
2023/06/07 06:23:31;;;;;;;11.15;6.40;;;;;;;17.86;100.00;100321.75;6608089;27;34028;-84
2023/06/07 06:26:33;;;;;;;9.00;5.90;;;;;;;17.86;100.00;100323.59;6608463;27;33777;-85
2023/06/07 06:29:36;;;;;;;6.97;5.90;;;;;;;17.97;100.00;100330.75;6608024;27;33569;-83
2023/06/07 06:32:39;;;;;;;6.35;5.65;;;;;;;17.77;100.00;100334.09;6608917;27;33980;-83
2023/06/07 06:35:44;;;;;;;8.15;6.00;;;;;;;18.05;100.00;100330.97;6609397;27;34540;-83
2023/06/07 06:38:47;;;;;;;9.35;5.50;;;;;;;18.19;100.00;100329.88;6610064;27;34724;-84
2023/06/07 06:41:50;;;;;;;9.00;5.93;;;;;;;18.08;100.00;100329.91;6612269;27;33680;-83
2023/06/07 06:44:53;;;;;;;8.77;6.05;;;;;;;18.31;100.00;100334.22;6620952;27;33613;-89
2023/06/07 06:47:58;;;;;;;9.55;5.57;;;;;;;18.15;100.00;100333.81;6607506;27;34436;-90
2023/06/07 06:51:01;;;;;;;7.87;6.03;;;;;;;18.18;100.00;100331.72;6609789;26;34781;-91
2023/06/07 06:54:05;;;;;;;7.90;5.90;;;;;;;18.36;100.00;100330.31;6608741;27;33318;-87
2023/06/07 06:57:08;;;;;;;8.52;5.80;;;;;;;18.60;100.00;100335.44;6607821;27;34181;-88
2023/06/07 07:00:11;;;;;;;8.55;5.80;;;;;;;18.48;100.00;100339.16;6612967;27;33842;-88
2023/06/07 07:03:14;;;;;;;8.75;6.03;;;;;;;18.56;100.00;100331.31;6620441;27;34040;-86
2023/06/07 07:06:18;;;;;;;7.15;5.93;;;;;;;18.58;100.00;100335.59;6607873;27;33624;-85
2023/06/07 07:09:20;;;;;;;8.25;6.82;;;;;;;18.74;100.00;100336.97;6607549;27;33779;-86
2023/06/07 07:12:23;;;;;;;10.30;6.65;;;;;;;19.04;100.00;100338.03;6607796;27;34455;-86
2023/06/07 07:15:27;;;;;;;8.98;6.97;;;;;;;18.99;100.00;100340.22;6607753;27;34003;-85
2023/06/07 07:18:30;;;;;;;10.38;6.75;;;;;;;19.17;100.00;100336.97;6608838;27;33170;-86
2023/06/07 07:21:33;;;;;;;13.32;6.90;;;;;;;19.43;100.00;100339.22;6616688;27;34352;-84
2023/06/07 07:24:36;;;;;;;10.13;6.75;;;;;;;19.40;100.00;100343.00;6624768;27;34922;-87
2023/06/07 07:27:39;;;;;;;10.00;6.90;;;;;;;19.44;100.00;100339.09;6610045;27;34215;-86
2023/06/07 07:30:42;;;;;;;12.70;7.50;;;;;;;19.69;100.00;100344.97;6606364;27;34455;-87
2023/06/07 07:33:45;;;;;;;9.05;6.50;;;;;;;19.58;100.00;100356.69;6606764;27;33485;-87
2023/06/07 07:36:50;;;;;;;9.13;6.50;;;;;;;19.43;100.00;100348.16;6606511;27;33383;-87
2023/06/07 07:39:52;;;;;;;8.25;6.75;;;;;;;19.52;100.00;100347.31;6607195;27;33622;-87
2023/06/07 07:42:55;;;;;;;7.78;6.57;;;;;;;19.34;100.00;100346.25;6606789;27;33993;-87
2023/06/07 07:45:58;;;;;;;11.10;7.30;;;;;;;19.39;100.00;100350.25;6606706;27;34587;-87
2023/06/07 07:49:09;;;;;;;9.73;6.65;;;;;;;19.08;100.00;100357.44;6605818;27;34402;-87
2023/06/07 07:52:12;;;;;;;8.98;6.65;;;;;;;18.94;100.00;100351.38;6606462;27;33490;-88
2023/06/07 07:55:15;;;;;;;11.38;6.47;;;;;;;19.18;100.00;100360.19;6607075;27;34469;-87
2023/06/07 07:58:36;;;;;;;9.05;5.97;;;;;;;19.28;100.00;100352.16;6609502;27;33731;-88
2023/06/07 08:01:39;;;;;;;10.55;5.90;;;;;;;19.33;100.00;100356.16;6620857;27;34189;-88
2023/06/07 08:04:42;;;;;;;8.38;6.45;;;;;;;19.71;100.00;100359.13;6617297;27;34620;-88
2023/06/07 08:07:45;;;;;;;9.55;6.75;;;;;;;19.79;100.00;100358.47;6607715;27;33748;-88
2023/06/07 08:10:48;;;;;;;10.25;6.43;;;;;;;19.64;100.00;100366.06;6607686;27;33590;-89
2023/06/07 08:13:50;;;;;;;10.07;6.72;;;;;;;19.38;100.00;100359.31;6607933;27;33701;-89
2023/06/07 08:16:54;;;;;;;8.95;6.70;;;;;;;19.64;100.00;100361.53;6607313;27;34944;-89
2023/06/07 08:19:56;;;;;;;10.82;6.75;;;;;;;19.71;100.00;100361.00;6606968;27;34423;-88
2023/06/07 08:22:59;;;;;;;7.47;6.68;;;;;;;19.68;100.00;100359.44;6607619;27;33951;-88
2023/06/07 08:26:03;;;;;;;9.07;6.85;;;;;;;19.54;100.00;100363.31;6607621;27;33629;-88
2023/06/07 08:29:05;;;;;;;7.45;6.40;;;;;;;19.51;100.00;100358.22;6605503;27;33858;-89
2023/06/07 08:32:08;;;;;;;13.00;7.03;;;;;;;19.46;100.00;100353.22;6606649;27;33806;-88
2023/06/07 08:35:11;;;;;;;10.02;6.60;;;;;;;19.60;100.00;100359.22;6606991;27;35442;-88
2023/06/07 08:38:14;;;;;;;10.88;7.20;;;;;;;19.49;100.00;100358.38;6612245;27;33767;-89
2023/06/07 08:41:17;;;;;;;12.70;6.95;;;;;;;19.44;100.00;100360.59;6615018;26;33926;-89
2023/06/07 08:44:19;;;;;;;9.32;6.80;;;;;;;19.52;100.00;100350.00;6607385;27;33530;-89
2023/06/07 08:47:25;;;;;;;7.70;6.07;;;;;;;19.57;100.00;100352.31;6607216;27;34495;-87
2023/06/07 08:53:56;;;;;;;13.18;6.93;;;;;;;19.70;100.00;100353.91;6552318;27;33914;-88
2023/06/07 08:56:59;;;;;;;9.07;7.10;;;;;;;19.59;100.00;100353.03;6553623;27;34002;-88
2023/06/07 09:00:06;;;;;;;11.35;7.57;;;;;;;19.72;100.00;100354.63;6557090;27;34087;-89
2023/06/07 09:03:11;;;;;;;8.57;7.22;;;;;;;19.97;100.00;100347.06;6561933;27;33708;-89
2023/06/07 09:13:38;;;;;;;8.23;7.43;;;;;;;20.21;100.00;100335.87;6609221;27;20063;-90
2023/06/07 09:16:58;;;;;;;8.82;7.62;;;;;;;20.07;100.00;100345.25;6609050;27;33550;-90
2023/06/07 09:27:30;;;;;;;9.45;8.43;;;;;;;19.68;100.00;100351.34;6608884;27;20068;-89
2023/06/07 09:30:33;;;;;;;12.23;8.25;;;;;;;19.88;100.00;100346.88;6609170;26;33596;-90
2023/06/07 09:33:36;;;;;;;9.07;7.90;;;;;;;20.23;100.00;100357.31;6611023;26;34828;-90
2023/06/07 09:36:55;;;;;;;9.45;8.10;;;;;;;20.33;100.00;100352.78;6608053;27;33757;-89
2023/06/07 09:40:08;;;;;;;8.68;7.85;;;;;;;20.37;100.00;100356.03;6607485;27;33821;-89
2023/06/07 09:43:11;;;;;;;8.30;7.50;;;;;;;20.44;100.00;100358.03;6604936;26;34720;-88
2023/06/07 09:46:14;;;;;;;9.50;7.50;;;;;;;20.16;100.00;100359.72;6607754;27;35104;-89
2023/06/07 09:49:28;;;;;;;9.57;8.68;;;;;;;20.32;100.00;100360.00;6608637;27;34302;-88
2023/06/07 09:52:34;;;;;;;9.90;8.93;;;;;;;20.29;100.00;100356.75;6608291;27;34093;-88
2023/06/07 09:55:37;;;;;;;11.43;8.48;;;;;;;20.22;100.00;100361.00;6608817;27;33783;-88
2023/06/07 09:58:40;;;;;;;9.45;8.10;;;;;;;20.35;100.00;100358.87;6610766;27;33972;-89
2023/06/07 10:01:52;;;;;;;17.02;8.65;;;;;;;20.55;100.00;100353.47;6606917;26;33959;-89
2023/06/07 10:11:58;;;;;;;10.90;8.57;;;;;;;20.64;100.00;100346.38;6554980;27;33982;-89
2023/06/07 11:43:30;;;;;;;8.35;7.55;;;;;;;22.67;100.00;100344.06;6603072;26;20400;-90
2023/06/07 11:46:34;;;;;;;8.77;7.43;;;;;;;22.67;100.00;100344.06;6605348;27;33865;-89
2023/06/07 11:49:40;;;;;;;9.10;7.30;;;;;;;23.13;100.00;100327.66;6606084;27;34491;-89
2023/06/07 11:52:46;;;;;;;12.77;8.10;;;;;;;24.01;100.00;100331.09;6607158;27;34129;-91
2023/06/07 11:55:49;;;;;;;9.93;7.07;;;;;;;23.94;98.67;100324.63;6609955;27;33855;-91
2023/06/07 11:58:53;;;;;;;10.23;7.80;;;;;;;23.85;100.00;100317.50;6610570;27;34473;-90
2023/06/07 12:01:57;;;;;;;8.60;7.70;;;;;;;24.35;98.58;100321.16;6610154;27;33541;-90
2023/06/07 12:05:00;;;;;;;8.85;7.82;;;;;;;24.75;93.89;100315.91;6606056;27;33822;-90
2023/06/07 12:08:10;;;;;;;9.70;7.62;;;;;;;24.99;95.51;100323.19;6608648;27;33547;-91
2023/06/07 12:11:13;;;;;;;16.05;7.57;;;;;;;25.09;93.38;100308.59;6610225;26;34021;-91
2023/06/07 12:14:32;;;;;;;8.23;7.45;;;;;;;24.98;92.98;100312.50;6609619;27;33695;-90
2023/06/07 12:17:35;;;;;;;9.88;7.53;;;;;;;25.24;93.07;100300.56;6603891;27;34667;-88
2023/06/07 12:20:40;;;;;;;10.02;7.72;;;;;;;25.44;93.21;100299.13;6604731;27;33706;-89
2023/06/07 12:23:51;;;;;;;9.35;7.62;;;;;;;25.53;89.50;100294.53;6604976;27;33628;-87
2023/06/07 12:26:56;;;;;;;8.80;7.50;;;;;;;25.21;88.75;100288.19;6603932;27;33863;-87
2023/06/07 12:30:00;;;;;;;11.10;7.85;;;;;;;24.60;94.82;100275.09;6604341;27;34076;-87
2023/06/07 12:33:03;;;;;;;9.65;8.43;;;;;;;25.00;91.71;100265.19;6607370;27;33591;-87
2023/06/07 12:36:09;;;;;;;8.65;7.87;;;;;;;24.40;91.70;100256.47;6608569;27;34354;-88
2023/06/07 12:39:14;;;;;;;10.40;8.48;;;;;;;24.31;95.29;100262.88;6617822;26;34162;-89
2023/06/07 12:53:30;;;;;;;9.93;8.73;;;;;;;23.87;96.01;100255.88;6608306;26;20333;-89
2023/06/07 12:56:33;;;;;;;10.98;8.68;;;;;;;23.37;93.90;100253.91;6608962;27;33896;-89
2023/06/07 12:59:36;;;;;;;9.07;8.25;;;;;;;23.14;91.74;100254.44;6619831;26;33762;-90
2023/06/07 13:02:41;;;;;;;8.98;8.07;;;;;;;23.14;89.45;100259.84;6627229;26;33822;-89
2023/06/07 13:05:44;;;;;;;12.55;8.05;;;;;;;23.52;91.44;100262.22;6614958;27;34067;-88
2023/06/07 13:08:58;;;;;;;10.05;9.07;;;;;;;23.94;91.74;100248.78;6609524;27;33648;-88
2023/06/07 13:19:31;;;;;;;9.95;8.65;;;;;;;24.55;91.68;100255.75;6614872;27;20060;-90
2023/06/07 13:22:34;;;;;;;9.82;8.75;;;;;;;24.49;90.88;100241.03;6625838;27;34783;-90
